createdAt,value
2022-11-19T00:00:34.499Z,6.53
2022-11-19T00:01:36.046Z,7.77
2022-11-19T00:02:37.632Z,8.07
2022-11-19T00:03:40.536Z,7.90
2022-11-19T00:04:42.078Z,7.33
2022-11-19T00:05:45.817Z,6.47
2022-11-19T00:06:47.409Z,6.70
2022-11-19T00:07:48.920Z,6.00
2022-11-19T00:08:50.867Z,6.97
2022-11-19T00:09:52.372Z,7.40
2022-11-19T00:10:53.897Z,7.60
2022-11-19T00:12:13.845Z,7.37
2022-11-19T00:13:15.434Z,8.80
2022-11-19T00:14:17.041Z,6.57
2022-11-19T00:15:18.562Z,7.10
2022-11-19T00:16:20.122Z,5.93
2022-11-19T00:17:21.705Z,7.03
2022-11-19T00:18:23.217Z,6.73
2022-11-19T00:19:24.785Z,7.97
2022-11-19T00:20:26.945Z,7.97
2022-11-19T00:21:28.486Z,8.40
2022-11-19T00:22:30.085Z,9.07
2022-11-19T00:23:32.172Z,8.23
2022-11-19T00:24:33.703Z,8.37
2022-11-19T00:25:35.217Z,7.30
2022-11-19T00:26:36.946Z,7.83
2022-11-19T00:27:38.452Z,6.13
2022-11-19T00:28:41.401Z,8.13
2022-11-19T00:29:42.979Z,7.33
2022-11-19T00:30:48.653Z,9.73
2022-11-19T00:31:50.499Z,8.90
2022-11-19T00:32:52.122Z,8.93
2022-11-19T00:33:54.931Z,8.17
2022-11-19T00:34:56.501Z,8.17
2022-11-19T00:35:59.834Z,9.80
2022-11-19T00:37:01.359Z,8.63
2022-11-19T00:38:02.932Z,6.47
2022-11-19T00:39:04.898Z,8.60
2022-11-19T00:40:12.025Z,9.27
2022-11-19T00:41:13.597Z,7.67
2022-11-19T00:42:15.220Z,6.07
2022-11-19T00:43:52.234Z,7.20
2022-11-19T00:44:54.050Z,6.67
2022-11-19T00:45:55.663Z,6.97
2022-11-19T00:46:57.168Z,6.53
2022-11-19T00:47:58.690Z,7.43
2022-11-19T00:49:00.678Z,6.40
2022-11-19T00:50:02.212Z,7.20
2022-11-19T00:51:03.822Z,7.80
2022-11-19T00:52:05.598Z,8.07
2022-11-19T00:53:07.122Z,5.67
2022-11-19T00:54:08.672Z,7.50
2022-11-19T00:55:10.166Z,7.03
2022-11-19T00:56:14.774Z,7.30
2022-11-19T00:57:16.286Z,8.00
2022-11-19T00:58:19.381Z,7.10
2022-11-19T00:59:21.316Z,7.97
2022-11-19T01:00:23.380Z,8.13
2022-11-19T01:01:25.721Z,6.13
2022-11-19T01:02:27.355Z,7.00
2022-11-19T01:03:30.195Z,7.37
2022-11-19T01:04:31.842Z,11.60
2022-11-19T01:05:33.387Z,11.17
2022-11-19T01:06:34.984Z,9.87
2022-11-19T01:07:36.575Z,13.33
2022-11-19T01:08:38.529Z,8.60
2022-11-19T01:09:40.054Z,11.20
2022-11-19T01:10:42.602Z,12.83
2022-11-19T01:11:44.333Z,8.43
2022-11-19T01:13:04.398Z,7.87
2022-11-19T01:14:07.390Z,10.07
2022-11-19T01:15:09.584Z,7.50
2022-11-19T01:16:14.436Z,9.53
2022-11-19T01:17:15.987Z,9.63
2022-11-19T01:18:19.000Z,11.50
2022-11-19T01:19:20.969Z,6.87
2022-11-19T01:20:22.861Z,8.67
2022-11-19T01:21:28.446Z,10.70
2022-11-19T01:22:29.965Z,10.17
2022-11-19T01:23:32.029Z,9.27
2022-11-19T01:24:33.625Z,8.77
2022-11-19T01:25:35.204Z,8.83
2022-11-19T01:26:38.768Z,9.43
2022-11-19T01:27:43.353Z,8.93
2022-11-19T01:28:46.068Z,10.77
2022-11-19T01:29:48.077Z,11.00
2022-11-19T01:30:49.864Z,9.93
2022-11-19T01:31:51.440Z,6.70
2022-11-19T01:32:53.061Z,7.90
2022-11-19T01:33:55.034Z,9.20
2022-11-19T01:34:56.621Z,7.03
2022-11-19T01:36:00.186Z,6.57
2022-11-19T01:37:01.826Z,9.23
2022-11-19T01:38:05.116Z,6.83
2022-11-19T01:39:06.663Z,8.63
2022-11-19T01:40:08.802Z,5.90
2022-11-19T01:41:10.526Z,6.40
2022-11-19T01:42:50.589Z,8.97
2022-11-19T01:44:05.276Z,6.70
2022-11-19T01:45:07.909Z,5.93
2022-11-19T01:46:12.608Z,5.50
2022-11-19T01:47:14.448Z,5.87
2022-11-19T01:48:23.957Z,7.47
2022-11-19T01:49:25.591Z,9.07
2022-11-19T01:50:31.168Z,7.97
2022-11-19T01:51:41.047Z,9.83
2022-11-19T01:52:42.750Z,8.40
2022-11-19T01:53:48.987Z,7.73
2022-11-19T01:54:55.629Z,8.27
2022-11-19T01:56:03.935Z,9.13
2022-11-19T01:57:10.138Z,7.17
2022-11-19T01:58:15.605Z,9.07
2022-11-19T01:59:19.357Z,6.07
2022-11-19T02:00:22.239Z,7.23
2022-11-19T02:01:24.132Z,8.93
2022-11-19T02:02:25.868Z,8.53
2022-11-19T02:03:31.270Z,8.40
2022-11-19T02:04:34.670Z,8.57
2022-11-19T02:05:36.872Z,7.47
2022-11-19T02:06:39.425Z,8.40
2022-11-19T02:07:46.356Z,7.00
2022-11-19T02:08:53.447Z,8.50
2022-11-19T02:09:56.443Z,5.87
2022-11-19T02:11:25.892Z,7.70
2022-11-19T02:12:59.844Z,7.73
2022-11-19T02:14:18.589Z,6.10
2022-11-19T02:15:35.197Z,7.17
2022-11-19T02:17:01.629Z,7.43
2022-11-19T02:18:34.021Z,9.97
2022-11-19T02:20:06.578Z,6.10
2022-11-19T02:21:20.035Z,6.90
2022-11-19T02:23:07.281Z,6.00
2022-11-19T02:24:41.720Z,6.70
2022-11-19T02:26:07.597Z,6.77
2022-11-19T02:27:21.512Z,4.30
2022-11-19T02:28:40.319Z,9.13
2022-11-19T02:29:59.165Z,4.17
2022-11-19T02:31:08.618Z,5.27
2022-11-19T02:32:19.175Z,7.17
2022-11-19T02:33:34.699Z,6.57
2022-11-19T02:34:46.328Z,8.13
2022-11-19T02:36:24.172Z,7.07
2022-11-19T02:37:49.548Z,7.27
2022-11-19T02:39:02.698Z,8.17
2022-11-19T02:40:09.508Z,8.57
2022-11-19T02:41:35.247Z,7.33
2022-11-19T02:42:54.002Z,7.80
2022-11-19T02:44:20.160Z,8.53
2022-11-19T02:45:24.486Z,7.47
2022-11-19T02:46:26.430Z,7.33
2022-11-19T02:47:42.705Z,8.87
2022-11-19T02:48:49.872Z,10.90
2022-11-19T02:49:55.974Z,8.47
2022-11-19T02:51:03.431Z,8.07
2022-11-19T02:52:05.580Z,10.50
2022-11-19T02:53:07.125Z,11.97
2022-11-19T02:54:08.829Z,11.97
2022-11-19T02:55:15.745Z,10.47
2022-11-19T02:56:55.849Z,9.87
2022-11-19T02:58:09.319Z,12.50
2022-11-19T02:59:31.114Z,11.70
2022-11-19T03:01:03.485Z,11.03
2022-11-19T03:02:26.530Z,10.30
2022-11-19T03:03:47.334Z,10.80
2022-11-19T03:04:48.980Z,8.57
2022-11-19T03:05:57.261Z,10.97
2022-11-19T03:07:07.418Z,8.10
2022-11-19T03:08:09.109Z,11.30
2022-11-19T03:09:11.643Z,9.37
2022-11-19T03:10:16.025Z,8.50
2022-11-19T03:11:29.317Z,7.63
2022-11-19T03:12:38.737Z,6.87
2022-11-19T03:14:22.367Z,8.20
2022-11-19T03:15:46.688Z,7.67
2022-11-19T03:17:06.756Z,6.30
2022-11-19T03:18:19.117Z,8.63
2022-11-19T03:19:27.067Z,8.10
2022-11-19T03:20:38.528Z,5.80
2022-11-19T03:21:52.471Z,8.37
2022-11-19T03:23:03.913Z,7.63
2022-11-19T03:24:11.175Z,8.40
2022-11-19T03:25:19.117Z,7.80
2022-11-19T03:26:32.001Z,5.80
2022-11-19T03:27:51.783Z,7.23
2022-11-19T03:28:57.512Z,4.57
2022-11-19T03:30:02.488Z,8.13
2022-11-19T03:31:06.175Z,8.20
2022-11-19T03:32:14.875Z,8.97
2022-11-19T03:33:24.994Z,5.70
2022-11-19T03:34:30.478Z,12.50
2022-11-19T03:35:38.103Z,7.53
2022-11-19T03:36:42.821Z,7.33
2022-11-19T03:37:50.662Z,7.77
2022-11-19T03:38:58.117Z,6.60
2022-11-19T03:40:02.013Z,8.07
2022-11-19T03:41:06.202Z,9.20
2022-11-19T03:42:12.133Z,8.87
2022-11-19T03:43:17.989Z,7.50
2022-11-19T03:44:48.427Z,9.93
2022-11-19T03:45:52.720Z,11.67
2022-11-19T03:47:00.931Z,10.07
2022-11-19T03:48:04.923Z,9.37
2022-11-19T03:49:09.236Z,7.83
2022-11-19T03:50:32.453Z,9.00
2022-11-19T03:51:44.158Z,9.60
2022-11-19T03:52:45.957Z,8.27
2022-11-19T03:53:49.153Z,8.90
2022-11-19T03:54:50.760Z,8.83
2022-11-19T03:55:59.351Z,7.57
2022-11-19T03:57:02.581Z,8.50
2022-11-19T03:58:06.332Z,7.77
2022-11-19T03:59:11.261Z,8.07
2022-11-19T04:00:13.175Z,7.87
2022-11-19T04:01:15.844Z,10.63
2022-11-19T04:02:18.183Z,10.67
2022-11-19T04:03:20.021Z,9.20
2022-11-19T04:04:37.372Z,7.80
2022-11-19T04:05:38.933Z,6.70
2022-11-19T04:06:40.529Z,7.93
2022-11-19T04:07:42.154Z,8.23
2022-11-19T04:08:43.730Z,5.53
2022-11-19T04:09:45.574Z,5.30
2022-11-19T04:10:47.102Z,5.20
2022-11-19T04:12:49.097Z,5.80
2022-11-19T04:13:50.607Z,5.80
2022-11-19T04:14:52.525Z,5.70
2022-11-19T04:15:54.032Z,8.27
2022-11-19T04:16:55.897Z,5.57
2022-11-19T04:17:57.416Z,6.03
2022-11-19T04:18:58.989Z,5.90
2022-11-19T04:20:00.562Z,8.67
2022-11-19T04:21:02.125Z,6.37
2022-11-19T04:22:03.775Z,6.33
2022-11-19T04:23:05.405Z,6.30
2022-11-19T04:24:07.319Z,6.60
2022-11-19T04:25:09.418Z,7.07
2022-11-19T04:26:10.935Z,7.23
2022-11-19T04:27:12.502Z,8.50
2022-11-19T04:28:14.041Z,11.17
2022-11-19T04:29:15.660Z,6.00
2022-11-19T04:30:17.375Z,9.33
2022-11-19T04:31:18.942Z,5.17
2022-11-19T04:32:20.479Z,7.23
2022-11-19T04:33:22.009Z,8.33
2022-11-19T04:34:23.557Z,11.30
2022-11-19T04:35:25.136Z,11.60
2022-11-19T04:36:26.982Z,10.80
2022-11-19T04:37:28.607Z,7.07
2022-11-19T04:38:30.157Z,8.67
2022-11-19T04:39:31.735Z,9.83
2022-11-19T04:40:33.270Z,9.17
2022-11-19T04:41:35.666Z,6.63
2022-11-19T04:42:37.186Z,9.47
2022-11-19T04:43:38.782Z,7.70
2022-11-19T04:44:40.468Z,6.97
2022-11-19T04:45:41.991Z,7.87
2022-11-19T04:46:43.589Z,7.17
2022-11-19T04:47:45.116Z,7.33
2022-11-19T04:48:46.694Z,5.17
2022-11-19T04:49:48.210Z,5.70
2022-11-19T04:50:49.758Z,6.27
2022-11-19T04:51:51.298Z,6.80
2022-11-19T04:52:52.899Z,7.80
2022-11-19T04:53:55.634Z,8.50
2022-11-19T04:54:57.152Z,8.03
2022-11-19T04:55:58.759Z,9.13
2022-11-19T04:57:00.400Z,7.23
2022-11-19T04:58:01.929Z,7.77
2022-11-19T04:59:05.231Z,9.90
2022-11-19T05:00:07.681Z,9.60
2022-11-19T05:01:09.319Z,11.30
2022-11-19T05:02:10.884Z,6.37
2022-11-19T05:03:12.391Z,5.70
2022-11-19T05:04:14.038Z,6.60
2022-11-19T05:05:15.559Z,9.20
2022-11-19T05:06:17.344Z,5.90
2022-11-19T05:07:18.904Z,8.43
2022-11-19T05:08:20.574Z,7.20
2022-11-19T05:09:22.466Z,10.20
2022-11-19T05:10:24.197Z,7.30
2022-11-19T05:11:25.714Z,9.97
2022-11-19T05:12:27.255Z,8.13
2022-11-19T05:13:28.792Z,8.57
2022-11-19T05:14:30.761Z,11.87
2022-11-19T05:15:32.357Z,8.63
2022-11-19T05:16:33.886Z,7.73
2022-11-19T05:17:35.423Z,12.13
2022-11-19T05:18:37.034Z,13.37
2022-11-19T05:19:38.602Z,12.00
2022-11-19T05:20:40.208Z,10.83
2022-11-19T05:21:42.495Z,10.07
2022-11-19T05:22:44.057Z,8.43
2022-11-19T05:23:45.610Z,7.87
2022-11-19T05:24:47.149Z,8.37
2022-11-19T05:25:48.723Z,8.70
2022-11-19T05:26:50.358Z,7.63
2022-11-19T05:27:52.046Z,8.10
2022-11-19T05:28:53.614Z,9.37
2022-11-19T05:29:55.154Z,7.27
2022-11-19T05:30:56.873Z,5.90
2022-11-19T05:31:58.466Z,8.60
2022-11-19T05:33:00.043Z,7.23
2022-11-19T05:34:01.621Z,8.30
2022-11-19T05:35:07.096Z,6.97
2022-11-19T05:36:08.947Z,5.87
2022-11-19T05:37:10.546Z,7.60
2022-11-19T05:38:12.125Z,5.97
2022-11-19T05:39:17.490Z,6.20
2022-11-19T05:40:23.424Z,7.27
2022-11-19T05:41:24.959Z,8.57
2022-11-19T05:42:26.512Z,4.87
2022-11-19T05:43:28.205Z,7.47
2022-11-19T05:44:29.728Z,7.97
2022-11-19T05:45:31.330Z,8.53
2022-11-19T05:46:32.923Z,8.57
2022-11-19T05:47:34.630Z,9.30
2022-11-19T05:48:36.289Z,8.33
2022-11-19T05:49:37.848Z,9.40
2022-11-19T05:50:42.450Z,10.33
2022-11-19T05:51:45.604Z,8.33
2022-11-19T05:52:47.131Z,10.17
2022-11-19T05:53:48.868Z,6.13
2022-11-19T05:54:50.412Z,5.90
2022-11-19T05:55:51.974Z,6.23
2022-11-19T05:56:53.545Z,7.53
2022-11-19T05:57:55.077Z,9.40
2022-11-19T05:58:56.765Z,6.40
2022-11-19T05:59:58.365Z,7.70
2022-11-19T06:01:00.269Z,8.87
2022-11-19T06:02:01.814Z,7.03
2022-11-19T06:03:03.411Z,13.17
2022-11-19T06:04:05.179Z,8.83
2022-11-19T06:05:07.110Z,7.00
2022-11-19T06:06:08.907Z,5.90
2022-11-19T06:07:10.609Z,12.80
2022-11-19T06:08:12.262Z,10.37
2022-11-19T06:09:13.783Z,9.50
2022-11-19T06:10:15.443Z,11.17
2022-11-19T06:11:36.225Z,13.10
2022-11-19T06:12:41.276Z,9.23
2022-11-19T06:13:46.797Z,8.57
2022-11-19T06:14:48.350Z,10.97
2022-11-19T06:15:49.905Z,9.20
2022-11-19T06:16:54.384Z,9.93
2022-11-19T06:17:56.731Z,12.50
2022-11-19T06:18:58.258Z,12.67
2022-11-19T06:20:00.391Z,12.30
2022-11-19T06:21:01.898Z,11.33
2022-11-19T06:22:03.938Z,13.43
2022-11-19T06:23:05.509Z,17.23
2022-11-19T06:24:07.258Z,13.93
2022-11-19T06:25:09.120Z,11.97
2022-11-19T06:26:11.186Z,15.73
2022-11-19T06:27:12.769Z,12.33
2022-11-19T06:28:14.368Z,11.40
2022-11-19T06:29:17.407Z,10.53
2022-11-19T06:30:19.286Z,9.97
2022-11-19T06:31:21.652Z,12.67
2022-11-19T06:32:23.677Z,10.83
2022-11-19T06:33:25.525Z,11.87
2022-11-19T06:34:27.070Z,10.63
2022-11-19T06:35:28.812Z,9.67
2022-11-19T06:36:36.076Z,11.43
2022-11-19T06:37:43.797Z,8.57
2022-11-19T06:38:45.560Z,8.93
2022-11-19T06:39:47.150Z,10.87
2022-11-19T06:40:48.707Z,8.93
2022-11-19T06:41:50.314Z,10.33
2022-11-19T06:42:51.882Z,11.93
2022-11-19T06:43:53.449Z,7.97
2022-11-19T06:44:54.985Z,11.37
2022-11-19T06:45:56.558Z,11.47
2022-11-19T06:46:58.105Z,9.90
2022-11-19T06:47:59.646Z,6.93
2022-11-19T06:49:01.346Z,8.83
2022-11-19T06:50:04.070Z,10.40
2022-11-19T06:51:05.852Z,7.23
2022-11-19T06:52:07.427Z,8.20
2022-11-19T06:53:08.969Z,7.70
2022-11-19T06:54:10.613Z,10.27
2022-11-19T06:55:13.470Z,10.73
2022-11-19T06:56:15.033Z,11.93
2022-11-19T06:57:16.660Z,9.43
2022-11-19T06:58:18.197Z,9.47
2022-11-19T06:59:19.854Z,11.50
2022-11-19T07:00:21.610Z,11.37
2022-11-19T07:01:23.223Z,12.63
2022-11-19T07:02:24.858Z,12.13
2022-11-19T07:03:26.712Z,14.10
2022-11-19T07:04:28.281Z,16.33
2022-11-19T07:05:29.905Z,17.77
2022-11-19T07:06:31.481Z,14.67
2022-11-19T07:07:34.838Z,13.80
2022-11-19T07:08:37.466Z,15.30
2022-11-19T07:09:39.947Z,18.17
2022-11-19T07:10:41.662Z,19.40
2022-11-19T07:11:43.245Z,18.77
2022-11-19T07:12:44.780Z,22.37
2022-11-19T07:13:58.398Z,19.80
2022-11-19T07:15:04.244Z,20.37
2022-11-19T07:16:06.460Z,24.20
2022-11-19T07:17:08.048Z,22.83
2022-11-19T07:18:10.030Z,29.60
2022-11-19T07:19:11.694Z,24.90
2022-11-19T07:20:13.324Z,23.60
2022-11-19T07:21:14.941Z,23.57
2022-11-19T07:22:16.489Z,20.27
2022-11-19T07:23:20.495Z,22.17
2022-11-19T07:24:22.190Z,24.20
2022-11-19T07:25:23.857Z,16.53
2022-11-19T07:26:26.378Z,20.87
2022-11-19T07:27:27.985Z,19.07
2022-11-19T07:28:29.554Z,18.10
2022-11-19T07:29:31.117Z,20.07
2022-11-19T07:30:32.663Z,19.97
2022-11-19T07:31:34.498Z,16.93
2022-11-19T07:32:36.054Z,12.30
2022-11-19T07:33:39.325Z,16.53
2022-11-19T07:34:40.923Z,16.10
2022-11-19T07:35:42.456Z,11.83
2022-11-19T07:36:44.795Z,13.77
2022-11-19T07:37:46.328Z,14.83
2022-11-19T07:38:48.219Z,12.03
2022-11-19T07:39:49.754Z,12.23
2022-11-19T07:40:54.999Z,15.68
2022-11-19T07:42:14.594Z,10.32
2022-11-19T07:43:16.150Z,13.02
2022-11-19T07:44:18.021Z,11.27
2022-11-19T07:45:22.166Z,11.93
2022-11-19T07:46:23.986Z,12.23
2022-11-19T07:47:25.678Z,10.70
2022-11-19T07:48:27.219Z,14.67
2022-11-19T07:49:28.768Z,11.57
2022-11-19T07:50:30.276Z,10.50
2022-11-19T07:51:32.031Z,11.27
2022-11-19T07:52:33.684Z,10.77
2022-11-19T07:53:35.271Z,10.53
2022-11-19T07:54:36.804Z,8.30
2022-11-19T07:55:38.361Z,9.20
2022-11-19T07:56:40.680Z,11.70
2022-11-19T07:57:42.206Z,10.63
2022-11-19T07:58:43.864Z,8.77
2022-11-19T07:59:45.515Z,9.77
2022-11-19T08:00:47.038Z,8.97
2022-11-19T08:01:48.681Z,10.23
2022-11-19T08:02:50.378Z,10.07
2022-11-19T08:03:56.377Z,8.73
2022-11-19T08:04:58.203Z,11.10
2022-11-19T08:05:59.712Z,9.77
2022-11-19T08:07:01.582Z,11.67
2022-11-19T08:08:03.210Z,12.70
2022-11-19T08:09:06.047Z,10.17
2022-11-19T08:10:08.549Z,7.70
2022-11-19T08:11:12.140Z,12.50
2022-11-19T08:12:13.723Z,8.77
2022-11-19T08:13:15.248Z,8.93
2022-11-19T08:14:16.780Z,9.23
2022-11-19T08:15:18.308Z,10.63
2022-11-19T08:16:39.069Z,12.87
2022-11-19T08:17:58.920Z,11.63
2022-11-19T08:19:07.202Z,9.90
2022-11-19T08:20:09.720Z,12.47
2022-11-19T08:21:12.181Z,12.37
2022-11-19T08:22:13.831Z,11.53
2022-11-19T08:23:15.729Z,12.13
2022-11-19T08:24:19.812Z,10.80
2022-11-19T08:25:21.883Z,12.17
2022-11-19T08:26:23.690Z,12.33
2022-11-19T08:27:25.480Z,11.07
2022-11-19T08:28:27.909Z,14.40
2022-11-19T08:29:29.450Z,10.30
2022-11-19T08:30:32.351Z,11.50
2022-11-19T08:31:33.955Z,10.33
2022-11-19T08:32:36.488Z,9.67
2022-11-19T08:33:38.060Z,8.37
2022-11-19T08:34:39.647Z,8.27
2022-11-19T08:35:41.300Z,8.50
2022-11-19T08:36:43.383Z,6.87
2022-11-19T08:37:47.074Z,9.63
2022-11-19T08:38:48.657Z,6.73
2022-11-19T08:39:50.182Z,8.63
2022-11-19T08:40:53.002Z,5.00
2022-11-19T08:42:13.024Z,7.30
2022-11-19T08:43:14.599Z,6.53
2022-11-19T08:44:17.957Z,10.60
2022-11-19T08:45:20.925Z,9.77
2022-11-19T08:46:22.675Z,6.50
2022-11-19T08:47:24.200Z,9.50
2022-11-19T08:48:25.711Z,9.37
2022-11-19T08:49:27.405Z,9.07
2022-11-19T08:50:30.123Z,10.27
2022-11-19T08:51:32.337Z,7.17
2022-11-19T08:52:33.899Z,8.97
2022-11-19T08:53:35.479Z,6.83
2022-11-19T08:54:37.025Z,9.77
2022-11-19T08:55:38.603Z,8.63
2022-11-19T08:56:40.346Z,9.93
2022-11-19T08:57:41.913Z,9.70
2022-11-19T08:58:43.634Z,9.57
2022-11-19T08:59:45.184Z,15.70
2022-11-19T09:00:47.017Z,10.50
2022-11-19T09:01:49.861Z,12.13
2022-11-19T09:02:51.386Z,12.93
2022-11-19T09:03:52.942Z,15.03
2022-11-19T09:04:54.430Z,13.33
2022-11-19T09:06:00.066Z,11.57
2022-11-19T09:07:02.711Z,12.10
2022-11-19T09:08:04.349Z,13.73
2022-11-19T09:09:05.939Z,14.73
2022-11-19T09:10:08.260Z,10.07
2022-11-19T09:11:13.388Z,12.60
2022-11-19T09:12:14.952Z,11.43
2022-11-19T09:13:16.474Z,9.50
2022-11-19T09:14:18.435Z,9.37
2022-11-19T09:15:20.832Z,7.75
2022-11-19T09:16:22.429Z,4.97
2022-11-19T09:17:24.226Z,5.60
2022-11-19T09:18:25.920Z,7.88
2022-11-19T09:19:27.475Z,5.50
2022-11-19T09:20:28.982Z,5.88
2022-11-19T09:21:30.521Z,4.85
2022-11-19T09:22:32.363Z,7.00
2022-11-19T09:23:34.009Z,8.18
2022-11-19T09:24:35.513Z,6.00
2022-11-19T09:25:37.063Z,7.63
2022-11-19T09:26:38.726Z,7.72
2022-11-19T09:27:40.367Z,4.50
2022-11-19T09:28:42.762Z,5.63
2022-11-19T09:29:44.365Z,11.30
2022-11-19T09:30:53.950Z,8.38
2022-11-19T09:31:55.556Z,6.85
2022-11-19T09:32:59.989Z,3.63
2022-11-19T09:34:01.766Z,3.50
2022-11-19T09:35:03.365Z,7.03
2022-11-19T09:36:05.311Z,3.53
2022-11-19T09:37:09.214Z,2.37
2022-11-19T09:38:10.816Z,3.85
2022-11-19T09:39:12.653Z,3.70
2022-11-19T09:40:20.794Z,4.30
2022-11-19T09:41:34.176Z,6.67
2022-11-19T09:42:48.423Z,1.90
2022-11-19T09:43:49.933Z,1.60
2022-11-19T09:45:02.901Z,4.18
2022-11-19T09:46:15.415Z,3.23
2022-11-19T09:47:22.857Z,2.70
2022-11-19T09:48:36.955Z,2.50
2022-11-19T09:50:16.749Z,4.00
2022-11-19T09:51:26.388Z,3.78
2022-11-19T09:52:30.230Z,5.93
2022-11-19T09:53:59.706Z,4.07
2022-11-19T09:55:02.777Z,3.10
2022-11-19T09:56:06.173Z,2.67
2022-11-19T09:57:15.205Z,2.92
2022-11-19T09:58:31.295Z,2.08
2022-11-19T09:59:41.404Z,3.17
2022-11-19T10:00:44.519Z,3.22
2022-11-19T10:01:46.065Z,3.00
2022-11-19T10:02:47.860Z,2.63
2022-11-19T10:03:52.319Z,2.83
2022-11-19T10:04:54.006Z,3.40
2022-11-19T10:06:07.746Z,3.83
2022-11-19T10:07:29.159Z,3.83
2022-11-19T10:09:08.307Z,3.33
2022-11-19T10:10:38.804Z,4.97
2022-11-19T10:11:40.281Z,2.65
2022-11-19T10:13:12.403Z,2.15
2022-11-19T10:14:34.985Z,4.83
2022-11-19T10:15:53.900Z,2.77
2022-11-19T10:17:14.155Z,4.17
2022-11-19T10:18:43.981Z,4.53
2022-11-19T10:19:52.012Z,5.40
2022-11-19T10:21:05.096Z,3.50
2022-11-19T10:22:22.920Z,3.23
2022-11-19T10:23:42.628Z,5.47
2022-11-19T10:24:51.827Z,3.75
2022-11-19T10:26:01.862Z,3.63
2022-11-19T10:27:12.358Z,4.23
2022-11-19T10:28:30.773Z,5.47
2022-11-19T10:29:37.338Z,2.95
2022-11-19T10:30:41.298Z,3.65
2022-11-19T10:31:50.831Z,2.67
2022-11-19T10:33:14.992Z,4.10
2022-11-19T10:34:23.429Z,2.65
2022-11-19T10:35:40.723Z,6.25
2022-11-19T10:36:50.477Z,5.03
2022-11-19T10:38:05.374Z,2.92
2022-11-19T10:39:18.221Z,6.05
2022-11-19T10:40:23.898Z,5.65
2022-11-19T10:41:42.266Z,4.23
2022-11-19T10:42:58.820Z,5.07
2022-11-19T10:44:32.612Z,4.53
2022-11-19T10:45:34.131Z,5.17
2022-11-19T10:46:35.986Z,3.15
2022-11-19T10:47:44.426Z,3.05
2022-11-19T10:48:57.638Z,5.47
2022-11-19T10:49:59.222Z,3.93
2022-11-19T10:51:03.594Z,3.97
2022-11-19T10:52:10.298Z,4.63
2022-11-19T10:53:27.273Z,3.08
2022-11-19T10:54:30.297Z,4.32
2022-11-19T10:55:41.751Z,6.18
2022-11-19T10:56:43.334Z,2.58
2022-11-19T10:57:46.913Z,4.07
2022-11-19T10:58:56.549Z,4.32
2022-11-19T10:59:58.611Z,4.18
2022-11-19T11:01:04.166Z,5.45
2022-11-19T11:02:24.999Z,5.75
2022-11-19T11:03:29.138Z,3.22
2022-11-19T11:04:30.843Z,5.75
2022-11-19T11:06:05.162Z,6.22
2022-11-19T11:07:06.828Z,3.38
2022-11-19T11:08:11.469Z,4.53
2022-11-19T11:09:28.652Z,4.75
2022-11-19T11:10:37.432Z,4.35
2022-11-19T11:11:57.609Z,4.32
2022-11-19T11:13:25.763Z,4.60
2022-11-19T11:14:45.934Z,4.30
2022-11-19T11:15:50.528Z,4.32
2022-11-19T11:16:52.172Z,5.13
2022-11-19T11:18:24.953Z,3.10
2022-11-19T11:19:26.654Z,11.10
2022-11-19T11:20:30.074Z,6.07
2022-11-19T11:21:36.626Z,5.22
2022-11-19T11:22:38.534Z,3.80
2022-11-19T11:23:50.988Z,4.53
2022-11-19T11:24:52.692Z,4.47
2022-11-19T11:26:10.510Z,4.05
2022-11-19T11:27:25.503Z,4.68
2022-11-19T11:28:27.105Z,5.30
2022-11-19T11:29:28.748Z,3.17
2022-11-19T11:30:30.410Z,3.45
2022-11-19T11:31:43.601Z,5.22
2022-11-19T11:32:45.116Z,3.75
2022-11-19T11:33:57.765Z,2.83
2022-11-19T11:35:02.346Z,4.78
2022-11-19T11:36:12.653Z,3.55
2022-11-19T11:37:14.479Z,3.72
2022-11-19T11:38:20.741Z,7.57
2022-11-19T11:39:32.498Z,3.63
2022-11-19T11:40:34.079Z,2.90
2022-11-19T11:42:05.022Z,4.70
2022-11-19T11:43:00.941Z,4.32
2022-11-19T11:44:06.588Z,2.83
2022-11-19T11:45:32.967Z,4.28
2022-11-19T11:46:49.069Z,3.60
2022-11-19T11:47:50.824Z,2.40
2022-11-19T11:48:52.978Z,3.10
2022-11-19T11:50:08.664Z,3.47
2022-11-19T11:51:28.135Z,5.32
2022-11-19T11:52:43.628Z,2.42
2022-11-19T11:54:02.544Z,5.72
2022-11-19T11:55:06.908Z,6.05
2022-11-19T11:56:09.581Z,8.73
2022-11-19T11:57:18.474Z,8.52
2022-11-19T11:58:30.835Z,7.10
2022-11-19T11:59:33.233Z,7.68
2022-11-19T12:00:39.723Z,5.72
2022-11-19T12:01:42.904Z,4.82
2022-11-19T12:03:09.492Z,4.15
2022-11-19T12:04:13.839Z,2.55
2022-11-19T12:05:18.213Z,4.60
2022-11-19T12:06:24.530Z,5.03
2022-11-19T12:07:35.055Z,4.05
2022-11-19T12:09:13.650Z,4.70
2022-11-19T12:10:25.983Z,3.05
2022-11-19T12:11:50.145Z,4.20
2022-11-19T12:13:19.458Z,4.00
2022-11-19T12:14:35.060Z,2.65
2022-11-19T12:15:39.509Z,3.15
2022-11-19T12:17:06.104Z,5.60
2022-11-19T12:18:13.585Z,4.88
2022-11-19T12:19:33.181Z,2.53
2022-11-19T12:21:18.870Z,4.03
2022-11-19T12:22:41.491Z,4.22
2022-11-19T12:23:51.690Z,3.65
2022-11-19T12:24:55.895Z,2.75
2022-11-19T12:26:12.551Z,3.30
2022-11-19T12:27:20.223Z,7.28
2022-11-19T12:29:03.398Z,2.72
2022-11-19T12:30:07.796Z,5.80
2022-11-19T12:31:41.376Z,3.60
2022-11-19T12:33:16.819Z,4.53
2022-11-19T12:34:18.339Z,2.78
2022-11-19T12:35:36.182Z,6.00
2022-11-19T12:37:06.031Z,4.53
2022-11-19T12:38:32.118Z,4.15
2022-11-19T12:39:42.446Z,3.15
2022-11-19T12:41:02.744Z,6.75
2022-11-19T12:42:24.475Z,3.42
2022-11-19T12:43:47.061Z,5.07
2022-11-19T12:45:14.763Z,6.90
2022-11-19T12:46:20.595Z,4.60
2022-11-19T12:47:47.042Z,4.22
2022-11-19T12:49:10.511Z,4.90
2022-11-19T12:50:36.667Z,4.22
2022-11-19T12:51:59.371Z,5.45
2022-11-19T12:53:19.130Z,4.20
2022-11-19T12:54:55.378Z,4.65
2022-11-19T12:56:11.775Z,2.70
2022-11-19T12:57:52.285Z,5.07
2022-11-19T12:59:29.119Z,4.90
2022-11-19T13:00:35.689Z,5.45
2022-11-19T13:01:45.391Z,2.47
2022-11-19T13:03:08.763Z,9.63
2022-11-19T13:04:21.169Z,4.82
2022-11-19T13:05:25.859Z,4.25
2022-11-19T13:06:43.791Z,4.68
2022-11-19T13:08:02.431Z,4.78
2022-11-19T13:09:48.188Z,6.13
2022-11-19T13:10:59.599Z,6.47
2022-11-19T13:12:08.006Z,3.33
2022-11-19T13:13:14.329Z,3.63
2022-11-19T13:14:35.522Z,3.88
2022-11-19T13:15:41.551Z,4.90
2022-11-19T13:16:44.403Z,4.75
2022-11-19T13:17:50.797Z,5.53
2022-11-19T13:19:00.278Z,4.85
2022-11-19T13:20:18.251Z,5.25
2022-11-19T13:21:38.453Z,6.28
2022-11-19T13:22:46.746Z,8.48
2022-11-19T13:23:49.173Z,3.65
2022-11-19T13:24:59.690Z,5.60
2022-11-19T13:26:23.882Z,5.88
2022-11-19T13:27:28.430Z,9.85
2022-11-19T13:28:39.753Z,5.78
2022-11-19T13:29:45.739Z,5.18
2022-11-19T13:30:50.807Z,5.13
2022-11-19T13:32:03.535Z,9.05
2022-11-19T13:33:19.890Z,5.15
2022-11-19T13:34:24.558Z,5.22
2022-11-19T13:35:37.954Z,5.28
2022-11-19T13:36:49.226Z,5.65
2022-11-19T13:37:58.312Z,7.40
2022-11-19T13:39:26.563Z,5.32
2022-11-19T13:40:48.412Z,5.25
2022-11-19T13:42:11.141Z,3.22
2022-11-19T13:43:39.831Z,5.57
2022-11-19T13:44:41.784Z,6.95
2022-11-19T13:45:47.416Z,5.35
2022-11-19T13:46:59.123Z,5.55
2022-11-19T13:48:20.198Z,5.97
2022-11-19T13:49:31.843Z,7.57
2022-11-19T13:50:42.852Z,7.18
2022-11-19T13:51:48.377Z,6.00
2022-11-19T13:52:58.154Z,4.30
2022-11-19T13:54:03.410Z,6.13
2022-11-19T13:55:26.493Z,4.93
2022-11-19T13:56:56.011Z,5.05
2022-11-19T13:58:11.289Z,6.95
2022-11-19T13:59:27.760Z,3.33
2022-11-19T14:00:29.516Z,4.93
2022-11-19T14:01:37.243Z,6.00
2022-11-19T14:02:44.568Z,4.78
2022-11-19T14:03:55.088Z,7.07
2022-11-19T14:05:08.620Z,6.00
2022-11-19T14:06:37.389Z,5.00
2022-11-19T14:07:57.655Z,3.65
2022-11-19T14:09:17.081Z,6.60
2022-11-19T14:10:39.370Z,7.60
2022-11-19T14:12:17.427Z,5.68
2022-11-19T14:13:21.565Z,3.17
2022-11-19T14:15:17.137Z,5.80
2022-11-19T14:16:49.194Z,5.30
2022-11-19T14:18:25.049Z,4.85
2022-11-19T14:19:44.918Z,3.72
2022-11-19T14:21:05.294Z,9.13
2022-11-19T14:22:50.187Z,5.45
2022-11-19T14:24:10.684Z,4.50
2022-11-19T14:25:50.751Z,3.30
2022-11-19T14:26:52.622Z,2.90
2022-11-19T14:27:54.621Z,11.73
2022-11-19T14:28:56.192Z,4.57
2022-11-19T14:30:06.728Z,2.85
2022-11-19T14:31:08.399Z,3.08
2022-11-19T14:32:09.894Z,3.58
2022-11-19T14:33:48.482Z,4.88
2022-11-19T14:35:02.270Z,3.78
2022-11-19T14:36:10.817Z,3.80
2022-11-19T14:37:23.095Z,4.28
2022-11-19T14:38:37.920Z,4.60
2022-11-19T14:39:42.678Z,4.07
2022-11-19T14:40:44.908Z,5.32
2022-11-19T14:41:46.484Z,6.70
2022-11-19T14:43:18.899Z,5.82
2022-11-19T14:44:26.127Z,8.50
2022-11-19T14:45:27.840Z,9.20
2022-11-19T14:46:29.752Z,4.47
2022-11-19T14:47:38.430Z,4.47
2022-11-19T14:48:40.083Z,4.75
2022-11-19T14:49:46.709Z,6.47
2022-11-19T14:51:04.068Z,5.75
2022-11-19T14:52:20.427Z,5.63
2022-11-19T14:53:22.032Z,9.18